createdAt,value
2022-08-14T00:01:36.188Z,12.75
2022-08-14T00:04:32.218Z,12.65
2022-08-14T00:06:50.555Z,12.68
2022-08-14T00:09:17.678Z,12.56
2022-08-14T00:11:44.602Z,12.50
2022-08-14T00:14:12.211Z,12.49
2022-08-14T00:16:45.019Z,12.45
2022-08-14T00:19:19.544Z,12.39
2022-08-14T00:21:50.102Z,12.44
2022-08-14T00:24:28.161Z,12.47
2022-08-14T00:27:01.876Z,12.46
2022-08-14T00:29:39.839Z,12.47
2022-08-14T00:32:52.231Z,12.47
2022-08-14T00:34:56.675Z,12.43
2022-08-14T00:37:23.483Z,12.35
2022-08-14T00:39:51.265Z,12.25
2022-08-14T00:42:55.244Z,12.30
2022-08-14T00:45:13.901Z,12.35
2022-08-14T00:47:44.942Z,12.38
2022-08-14T00:50:17.550Z,12.30
2022-08-14T00:52:50.962Z,12.34
2022-08-14T00:55:20.045Z,12.28
2022-08-14T00:58:08.103Z,12.32
2022-08-14T01:00:37.242Z,12.32
2022-08-14T01:03:17.297Z,12.38
2022-08-14T01:05:51.562Z,12.38
2022-08-14T01:08:52.338Z,12.43
2022-08-14T01:11:18.829Z,12.44
2022-08-14T01:13:50.810Z,12.42
2022-08-14T01:16:31.334Z,12.44
2022-08-14T01:19:17.139Z,12.43
2022-08-14T01:21:52.963Z,12.39
2022-08-14T01:24:30.406Z,12.38
2022-08-14T01:27:00.313Z,12.35
2022-08-14T01:29:59.367Z,12.36
2022-08-14T01:32:22.764Z,12.36
2022-08-14T01:35:19.977Z,12.37
2022-08-14T01:37:56.317Z,12.35
2022-08-14T01:40:36.710Z,12.28
2022-08-14T01:43:14.795Z,12.25
2022-08-14T01:45:42.555Z,12.18
2022-08-14T01:48:20.594Z,12.15
2022-08-14T01:50:47.792Z,12.13
2022-08-14T01:53:15.579Z,12.14
2022-08-14T01:55:42.557Z,12.15
2022-08-14T01:58:20.027Z,12.08
2022-08-14T02:00:55.152Z,12.14
2022-08-14T02:03:29.992Z,12.17
2022-08-14T02:06:32.935Z,12.17
2022-08-14T02:08:52.902Z,12.18
2022-08-14T02:11:24.502Z,12.21
2022-08-14T02:13:56.744Z,12.10
2022-08-14T02:16:29.789Z,12.04
2022-08-14T02:18:58.248Z,12.08
2022-08-14T02:21:27.249Z,12.09
2022-08-14T02:23:57.152Z,12.14
2022-08-14T02:26:30.812Z,12.17
2022-08-14T02:29:10.033Z,12.21
2022-08-14T02:31:43.327Z,12.22
2022-08-14T02:34:20.027Z,12.25
2022-08-14T02:37:03.768Z,12.26
2022-08-14T02:39:34.674Z,12.27
2022-08-14T02:42:04.353Z,12.26
2022-08-14T02:44:31.609Z,12.30
2022-08-14T02:47:14.939Z,12.29
2022-08-14T02:49:45.868Z,12.25
2022-08-14T02:52:55.877Z,12.24
2022-08-14T02:55:06.853Z,12.16
2022-08-14T02:57:39.922Z,12.10
2022-08-14T03:00:10.200Z,12.09
2022-08-14T03:02:56.183Z,12.08
2022-08-14T03:05:24.794Z,12.13
2022-08-14T03:07:51.845Z,12.12
2022-08-14T03:10:28.104Z,12.12
2022-08-14T03:13:04.839Z,12.11
2022-08-14T03:15:34.520Z,12.06
2022-08-14T03:18:01.301Z,12.05
2022-08-14T03:20:30.290Z,12.06
2022-08-14T03:23:00.175Z,12.05
2022-08-14T03:25:27.137Z,12.07
2022-08-14T03:27:58.980Z,12.02
2022-08-14T03:30:39.460Z,12.07
2022-08-14T03:33:11.326Z,12.04
2022-08-14T03:36:00.168Z,12.03
2022-08-14T03:39:12.321Z,11.99
2022-08-14T03:41:16.794Z,11.99
2022-08-14T03:43:44.867Z,12.00
2022-08-14T03:46:52.799Z,11.93
2022-08-14T03:49:03.061Z,11.90
2022-08-14T03:51:30.206Z,11.88
2022-08-14T03:53:58.448Z,11.88
2022-08-14T03:56:27.325Z,11.93
2022-08-14T03:58:58.124Z,11.95
2022-08-14T04:01:29.483Z,11.92
2022-08-14T04:04:07.886Z,11.91
2022-08-14T04:06:47.499Z,11.92
2022-08-14T04:09:15.350Z,11.83
2022-08-14T04:11:44.593Z,11.83
2022-08-14T04:14:11.323Z,11.80
2022-08-14T04:16:48.293Z,11.85
2022-08-14T04:19:18.881Z,11.89
2022-08-14T04:22:03.373Z,11.95
2022-08-14T04:24:37.635Z,11.98
2022-08-14T04:27:11.609Z,11.97
2022-08-14T04:29:40.092Z,11.96
2022-08-14T04:32:59.020Z,11.99
2022-08-14T04:34:57.746Z,11.98
2022-08-14T04:37:45.272Z,11.92
2022-08-14T04:40:32.564Z,11.95
2022-08-14T04:43:20.798Z,12.03
2022-08-14T04:45:51.023Z,12.05
2022-08-14T04:48:39.460Z,12.13
2022-08-14T04:51:10.265Z,12.12
2022-08-14T04:53:42.788Z,12.17
2022-08-14T04:56:31.302Z,12.21
2022-08-14T04:59:09.393Z,12.33
2022-08-14T05:01:40.009Z,12.30
2022-08-14T05:04:08.824Z,12.32
2022-08-14T05:06:43.208Z,12.35
2022-08-14T05:09:14.209Z,12.38
2022-08-14T05:11:42.014Z,12.42
2022-08-14T05:14:34.642Z,12.45
2022-08-14T05:16:59.244Z,12.53
2022-08-14T05:19:29.196Z,12.58
2022-08-14T05:22:15.984Z,12.64
2022-08-14T05:24:44.783Z,12.75
2022-08-14T05:27:11.683Z,12.92
2022-08-14T05:29:38.429Z,13.40
2022-08-14T05:32:08.028Z,13.80
2022-08-14T05:34:34.871Z,14.25
2022-08-14T05:37:03.191Z,14.75
2022-08-14T05:39:31.740Z,15.18
2022-08-14T05:42:00.740Z,15.30
2022-08-14T05:44:30.217Z,15.52
2022-08-14T05:46:58.704Z,15.76
2022-08-14T05:49:32.993Z,16.17
2022-08-14T05:52:01.875Z,16.42
2022-08-14T05:54:35.393Z,16.74
2022-08-14T05:57:04.866Z,17.09
2022-08-14T05:59:39.170Z,17.23
2022-08-14T06:02:10.091Z,17.45
2022-08-14T06:04:37.637Z,17.78
2022-08-14T06:07:05.301Z,18.07
2022-08-14T06:09:35.954Z,18.20
2022-08-14T06:12:08.974Z,18.35
2022-08-14T06:14:36.698Z,18.47
2022-08-14T06:17:04.722Z,18.63
2022-08-14T06:19:31.722Z,18.90
2022-08-14T06:21:59.452Z,19.06
2022-08-14T06:24:30.450Z,19.26
2022-08-14T06:27:04.376Z,19.33
2022-08-14T06:29:35.007Z,19.34
2022-08-14T06:32:48.697Z,19.47
2022-08-14T06:35:02.244Z,19.74
2022-08-14T06:37:46.784Z,19.94
2022-08-14T06:40:27.085Z,20.11
2022-08-14T06:43:00.113Z,20.31
2022-08-14T06:45:31.049Z,20.45
2022-08-14T06:47:58.891Z,20.60
2022-08-14T06:50:30.064Z,20.69
2022-08-14T06:52:58.598Z,21.00
2022-08-14T06:55:28.215Z,21.30
2022-08-14T06:57:57.795Z,21.58
2022-08-14T07:00:31.108Z,21.76
2022-08-14T07:03:17.724Z,21.88
2022-08-14T07:05:55.954Z,21.88
2022-08-14T07:08:31.589Z,22.01
2022-08-14T07:11:04.408Z,21.73
2022-08-14T07:13:32.415Z,21.77
2022-08-14T07:16:00.670Z,21.88
2022-08-14T07:18:34.292Z,21.81
2022-08-14T07:21:02.907Z,22.00
2022-08-14T07:23:31.051Z,22.11
2022-08-14T07:25:59.635Z,22.08
2022-08-14T07:28:33.127Z,21.91
2022-08-14T07:31:04.676Z,21.79
2022-08-14T07:33:50.488Z,21.96
2022-08-14T07:36:27.514Z,22.17
2022-08-14T07:39:02.908Z,22.30
2022-08-14T07:41:39.268Z,22.48
2022-08-14T07:44:32.009Z,22.27
2022-08-14T07:46:58.220Z,22.81
2022-08-14T07:49:25.665Z,22.73
2022-08-14T07:51:52.509Z,23.05
2022-08-14T07:54:23.092Z,23.27
2022-08-14T07:56:59.688Z,23.46
2022-08-14T07:59:40.837Z,23.63
2022-08-14T08:02:18.956Z,23.94
2022-08-14T08:04:54.524Z,24.32
2022-08-14T08:07:24.771Z,24.35
2022-08-14T08:09:57.925Z,24.44
2022-08-14T08:12:29.477Z,24.18
2022-08-14T08:15:02.873Z,24.26
2022-08-14T08:17:38.339Z,24.35
2022-08-14T08:20:11.755Z,24.53
2022-08-14T08:22:43.197Z,24.48
2022-08-14T08:25:13.999Z,24.68
2022-08-14T08:28:08.373Z,24.88
2022-08-14T08:30:45.039Z,25.04
2022-08-14T08:33:17.969Z,24.98
2022-08-14T08:35:50.293Z,25.02
2022-08-14T08:39:14.832Z,25.03
2022-08-14T08:41:11.213Z,25.04
2022-08-14T08:43:46.109Z,25.33
2022-08-14T08:46:23.406Z,25.13
2022-08-14T08:51:31.016Z,25.60
2022-08-14T08:54:19.682Z,25.45
2022-08-14T08:56:48.270Z,25.75
2022-08-14T08:59:27.109Z,25.76
2022-08-14T09:02:00.884Z,25.84
2022-08-14T09:04:35.250Z,25.86
2022-08-14T09:07:10.214Z,25.95
2022-08-14T09:09:54.059Z,25.89
2022-08-14T09:12:36.047Z,25.97
2022-08-14T09:15:11.982Z,25.76
2022-08-14T09:17:41.337Z,26.11
2022-08-14T09:20:11.653Z,26.17
2022-08-14T09:22:47.302Z,26.33
2022-08-14T09:25:15.466Z,26.47
2022-08-14T09:27:42.247Z,26.49
2022-08-14T09:30:31.362Z,26.01
2022-08-14T09:33:10.626Z,26.57
2022-08-14T09:36:01.838Z,26.51
2022-08-14T09:38:37.380Z,26.89
2022-08-14T09:41:19.812Z,26.97
2022-08-14T09:44:08.070Z,26.95
2022-08-14T09:46:35.543Z,26.89
2022-08-14T09:49:06.849Z,27.11
2022-08-14T09:51:44.680Z,27.37
2022-08-14T09:54:23.717Z,27.12
2022-08-14T09:56:57.139Z,27.17
2022-08-14T09:59:28.062Z,27.24
2022-08-14T10:01:59.794Z,26.79
2022-08-14T10:04:35.738Z,27.08
2022-08-14T10:07:08.133Z,27.03
2022-08-14T10:09:59.899Z,26.35
2022-08-14T10:12:42.492Z,26.13
2022-08-14T10:15:20.109Z,26.00
2022-08-14T10:17:49.194Z,26.25
2022-08-14T10:20:40.246Z,26.55
2022-08-14T10:23:16.506Z,26.79
2022-08-14T10:25:50.805Z,27.11
2022-08-14T10:28:51.389Z,27.12
2022-08-14T10:31:20.194Z,27.20
2022-08-14T10:34:01.130Z,26.94
2022-08-14T10:36:40.691Z,27.05
2022-08-14T10:39:19.877Z,26.99
2022-08-14T10:41:49.169Z,26.66
2022-08-14T10:44:29.789Z,26.77
2022-08-14T10:47:40.603Z,26.23
2022-08-14T10:49:59.762Z,26.59
2022-08-14T10:52:34.603Z,26.65
2022-08-14T10:55:16.536Z,26.96
2022-08-14T10:57:57.611Z,27.36
2022-08-14T11:00:29.861Z,27.49
2022-08-14T11:03:09.716Z,27.34
2022-08-14T11:05:46.450Z,27.32
2022-08-14T11:08:16.628Z,27.05
2022-08-14T11:10:43.393Z,26.53
2022-08-14T11:13:10.253Z,26.58
2022-08-14T11:15:37.003Z,26.64
2022-08-14T11:18:05.687Z,26.89
2022-08-14T11:20:32.771Z,26.97
2022-08-14T11:23:02.006Z,27.20
2022-08-14T11:25:43.426Z,27.23
2022-08-14T11:28:14.488Z,26.92
2022-08-14T11:30:50.487Z,26.79
2022-08-14T11:33:32.730Z,26.50
2022-08-14T11:36:01.673Z,26.35
2022-08-14T11:38:35.775Z,26.21
2022-08-14T11:41:06.211Z,26.13
2022-08-14T11:43:40.758Z,26.08
2022-08-14T11:46:17.828Z,26.03
2022-08-14T11:49:02.018Z,26.00
2022-08-14T11:51:36.139Z,25.91
2022-08-14T11:54:19.552Z,26.06
2022-08-14T11:56:49.957Z,26.39
2022-08-14T11:59:26.476Z,26.14
2022-08-14T12:03:00.142Z,25.98
2022-08-14T12:04:58.180Z,25.82
2022-08-14T12:07:25.024Z,25.65
2022-08-14T12:09:56.232Z,25.60
2022-08-14T12:12:47.322Z,25.46
2022-08-14T12:15:12.952Z,25.36
2022-08-14T12:17:53.331Z,25.35
2022-08-14T12:20:33.687Z,25.19
2022-08-14T12:23:02.486Z,25.22
2022-08-14T12:25:34.525Z,25.32
2022-08-14T12:28:08.560Z,25.37
2022-08-14T12:30:43.191Z,25.45
2022-08-14T12:33:39.533Z,25.36
2022-08-14T12:36:22.973Z,25.41
2022-08-14T12:38:54.170Z,25.39
2022-08-14T12:41:24.082Z,25.40
2022-08-14T12:43:59.666Z,25.56
2022-08-14T12:46:43.694Z,25.78
2022-08-14T12:49:17.201Z,25.96
2022-08-14T12:51:56.773Z,26.00
2022-08-14T12:54:28.364Z,26.09
2022-08-14T12:57:19.685Z,26.07
2022-08-14T12:59:49.484Z,26.09
2022-08-14T13:02:26.277Z,26.02
2022-08-14T13:04:58.253Z,25.98
2022-08-14T13:07:32.496Z,25.92
2022-08-14T13:10:00.634Z,25.74
2022-08-14T13:13:12.712Z,25.78
2022-08-14T13:15:38.273Z,25.81
2022-08-14T13:18:10.618Z,25.83
2022-08-14T13:20:38.420Z,25.70
2022-08-14T13:23:14.969Z,25.62
2022-08-14T13:25:56.174Z,25.66
2022-08-14T13:28:32.907Z,25.82
2022-08-14T13:31:10.996Z,25.88
2022-08-14T13:33:40.402Z,25.88
2022-08-14T13:36:08.713Z,25.95
2022-08-14T13:38:35.621Z,25.88
2022-08-14T13:41:02.914Z,25.72
2022-08-14T13:43:31.423Z,25.65
2022-08-14T13:46:04.030Z,25.77
2022-08-14T13:48:33.308Z,26.00
2022-08-14T13:51:10.604Z,26.16
2022-08-14T13:53:49.506Z,26.07
2022-08-14T13:56:36.703Z,25.97
2022-08-14T13:59:04.246Z,25.81
2022-08-14T14:01:38.282Z,25.80
2022-08-14T14:04:19.347Z,25.71
2022-08-14T14:06:50.839Z,25.57
2022-08-14T14:09:37.831Z,25.56
2022-08-14T14:12:38.383Z,25.63
2022-08-14T14:15:09.696Z,25.60
2022-08-14T14:17:38.909Z,25.44
2022-08-14T14:20:10.724Z,25.37
2022-08-14T14:23:02.193Z,25.36
2022-08-14T14:25:46.403Z,25.35
2022-08-14T14:28:17.094Z,25.27
2022-08-14T14:30:54.617Z,25.25
2022-08-14T14:33:45.255Z,25.14
2022-08-14T14:36:15.284Z,25.07
2022-08-14T14:38:53.731Z,25.00
2022-08-14T14:41:23.534Z,24.97
2022-08-14T14:43:53.034Z,24.94
2022-08-14T14:46:36.359Z,24.90
2022-08-14T14:49:06.156Z,24.84
2022-08-14T14:51:35.016Z,24.79
2022-08-14T14:54:02.645Z,24.76
2022-08-14T14:56:47.948Z,24.71
2022-08-14T14:59:19.382Z,24.67
2022-08-14T15:01:51.026Z,24.69
2022-08-14T15:04:20.335Z,24.65
2022-08-14T15:06:48.393Z,24.63
2022-08-14T15:09:17.962Z,24.65
2022-08-14T15:11:47.109Z,24.69
2022-08-14T15:14:55.275Z,24.80
2022-08-14T15:17:02.157Z,24.82
2022-08-14T15:19:28.989Z,24.83
2022-08-14T15:21:55.947Z,24.89
2022-08-14T15:24:26.713Z,24.99
2022-08-14T15:26:58.531Z,25.07
2022-08-14T15:29:27.153Z,25.13
2022-08-14T15:31:54.078Z,25.18
2022-08-14T15:34:43.538Z,25.21
2022-08-14T15:37:10.896Z,25.27
2022-08-14T15:39:38.687Z,25.27
2022-08-14T15:42:15.833Z,25.29
2022-08-14T15:44:58.470Z,25.30
2022-08-14T15:47:31.134Z,25.30
2022-08-14T15:50:00.540Z,25.29
2022-08-14T15:52:35.210Z,25.30
2022-08-14T15:55:14.587Z,25.26
2022-08-14T15:58:01.483Z,25.21
2022-08-14T16:00:51.601Z,25.15
2022-08-14T16:03:27.242Z,25.14
2022-08-14T16:06:02.910Z,25.13
2022-08-14T16:08:30.824Z,25.14
2022-08-14T16:11:02.874Z,25.14
2022-08-14T16:13:39.378Z,25.17
2022-08-14T16:16:34.572Z,25.22
2022-08-14T16:19:10.876Z,25.22
2022-08-14T16:21:58.273Z,25.19
2022-08-14T16:24:32.572Z,25.16
2022-08-14T16:27:00.788Z,25.15
2022-08-14T16:29:31.026Z,25.13
2022-08-14T16:32:01.699Z,25.16
2022-08-14T16:34:44.133Z,25.13
2022-08-14T16:37:19.089Z,25.07
2022-08-14T16:39:48.691Z,25.02
2022-08-14T16:42:39.061Z,24.96
2022-08-14T16:45:04.207Z,25.02
2022-08-14T16:47:34.961Z,24.92
2022-08-14T16:50:08.454Z,24.86
2022-08-14T16:52:54.779Z,24.82
2022-08-14T16:55:22.586Z,24.76
2022-08-14T16:57:58.574Z,24.73
2022-08-14T17:00:43.402Z,24.67
2022-08-14T17:03:13.185Z,24.66
2022-08-14T17:05:43.262Z,24.63
2022-08-14T17:08:32.562Z,24.59
2022-08-14T17:11:11.069Z,24.50
2022-08-14T17:13:59.427Z,24.43
2022-08-14T17:16:33.180Z,24.21
2022-08-14T17:19:05.676Z,24.11
2022-08-14T17:21:41.000Z,23.98
2022-08-14T17:24:56.309Z,23.82
2022-08-14T17:27:04.020Z,23.69
2022-08-14T17:29:55.951Z,23.57
2022-08-14T17:32:55.741Z,23.47
2022-08-14T17:35:57.488Z,23.28
2022-08-14T17:38:39.265Z,23.16
2022-08-14T17:41:23.430Z,22.95
2022-08-14T17:43:54.973Z,22.82
2022-08-14T17:46:36.748Z,22.59
2022-08-14T17:49:17.556Z,22.46
2022-08-14T17:52:01.761Z,22.32
2022-08-14T17:54:34.702Z,22.20
2022-08-14T17:57:10.525Z,22.08
2022-08-14T17:59:43.690Z,21.99
2022-08-14T18:02:16.557Z,21.92
2022-08-14T18:04:44.444Z,21.78
2022-08-14T18:08:31.620Z,21.72
2022-08-14T18:10:51.882Z,21.63
2022-08-14T18:12:54.948Z,21.55
2022-08-14T18:15:24.284Z,21.48
2022-08-14T18:18:08.825Z,21.40
2022-08-14T18:21:39.831Z,21.31
2022-08-14T18:23:26.792Z,21.21
2022-08-14T18:25:57.241Z,21.15
2022-08-14T18:28:32.222Z,21.06
2022-08-14T18:31:22.792Z,20.98
2022-08-14T18:34:07.145Z,20.86
2022-08-14T18:36:57.092Z,20.81
2022-08-14T18:39:34.718Z,20.68
2022-08-14T18:42:40.998Z,20.54
2022-08-14T18:45:16.023Z,20.46
2022-08-14T18:48:15.991Z,20.44
2022-08-14T18:50:53.775Z,20.37
2022-08-14T18:53:24.535Z,20.32
2022-08-14T18:55:59.932Z,20.27
2022-08-14T18:58:57.105Z,20.23
2022-08-14T19:01:30.402Z,20.17
2022-08-14T19:04:00.923Z,20.13
2022-08-14T19:07:16.223Z,20.11
2022-08-14T19:09:58.928Z,20.07
2022-08-14T19:12:53.661Z,20.03
2022-08-14T19:15:31.673Z,19.99
2022-08-14T19:18:14.919Z,19.95
2022-08-14T19:21:00.256Z,19.84
2022-08-14T19:23:42.497Z,19.77
2022-08-14T19:26:34.254Z,19.71
2022-08-14T19:29:23.494Z,19.62
2022-08-14T19:31:55.362Z,19.60
2022-08-14T19:34:48.032Z,19.56
2022-08-14T19:37:52.603Z,19.51
2022-08-14T19:40:42.722Z,19.45
2022-08-14T19:43:22.749Z,19.39
2022-08-14T19:46:39.300Z,19.40
2022-08-14T19:48:57.271Z,19.39
2022-08-14T19:51:24.984Z,19.36
2022-08-14T19:54:13.066Z,19.35
2022-08-14T19:56:41.976Z,19.33
2022-08-14T19:59:18.343Z,19.31
2022-08-14T20:01:50.497Z,19.29
2022-08-14T20:04:47.615Z,19.26
2022-08-14T20:07:58.844Z,19.24
2022-08-14T20:11:07.093Z,19.21
2022-08-14T20:13:32.583Z,19.22
2022-08-14T20:16:12.156Z,19.19
2022-08-14T20:18:51.596Z,19.19
2022-08-14T20:21:20.106Z,19.17
2022-08-14T20:23:48.227Z,19.14
2022-08-14T20:26:30.863Z,19.13
2022-08-14T20:28:59.717Z,19.12
2022-08-14T20:31:37.050Z,19.12
2022-08-14T20:34:24.967Z,19.11
2022-08-14T20:37:04.407Z,19.06
2022-08-14T20:39:34.589Z,19.04
2022-08-14T20:42:30.542Z,19.02
2022-08-14T20:45:23.746Z,18.99
2022-08-14T20:48:01.860Z,18.98
2022-08-14T20:50:36.801Z,18.96
2022-08-14T20:53:35.701Z,18.94
2022-08-14T20:56:28.954Z,18.92
2022-08-14T20:58:57.738Z,18.91
2022-08-14T21:01:24.451Z,18.89
2022-08-14T21:04:01.343Z,18.89
2022-08-14T21:07:23.059Z,18.84
2022-08-14T21:10:04.543Z,18.80
2022-08-14T21:12:34.395Z,18.74
2022-08-14T21:15:00.592Z,18.71
2022-08-14T21:17:29.597Z,18.68
2022-08-14T21:19:56.941Z,18.71
2022-08-14T21:22:25.566Z,18.64
2022-08-14T21:25:02.351Z,18.62
2022-08-14T21:27:56.574Z,18.59
2022-08-14T21:30:21.287Z,18.54
2022-08-14T21:33:09.045Z,18.51
2022-08-14T21:35:44.565Z,18.49
2022-08-14T21:38:17.950Z,18.46
2022-08-14T21:40:50.646Z,18.42
2022-08-14T21:43:20.968Z,18.38
2022-08-14T21:45:54.028Z,18.35
2022-08-14T21:48:30.977Z,18.33
2022-08-14T21:51:54.663Z,18.27
2022-08-14T21:53:58.526Z,18.23
2022-08-14T21:56:38.866Z,18.15
2022-08-14T21:59:18.954Z,18.08
2022-08-14T22:02:01.946Z,18.05
2022-08-14T22:04:40.029Z,17.97
2022-08-14T22:07:12.096Z,17.95
2022-08-14T22:09:42.760Z,17.91
2022-08-14T22:12:47.305Z,17.89
2022-08-14T22:14:58.528Z,17.84
2022-08-14T22:17:25.987Z,17.79
2022-08-14T22:19:59.229Z,17.77
2022-08-14T22:22:26.711Z,17.75
2022-08-14T22:25:00.274Z,17.73
2022-08-14T22:27:32.279Z,17.70
2022-08-14T22:30:00.304Z,17.65
2022-08-14T22:32:56.973Z,17.63
2022-08-14T22:35:15.782Z,17.63
2022-08-14T22:37:44.959Z,17.60
2022-08-14T22:40:46.674Z,17.60
2022-08-14T22:43:08.457Z,17.58
2022-08-14T22:45:37.965Z,17.51
2022-08-14T22:48:10.833Z,17.49
2022-08-14T22:50:53.108Z,17.46
2022-08-14T22:53:21.784Z,17.44
2022-08-14T22:55:48.960Z,17.42
2022-08-14T22:58:31.518Z,17.41
2022-08-14T23:01:01.665Z,17.38
2022-08-14T23:03:34.184Z,17.36
2022-08-14T23:06:02.304Z,17.33
2022-08-14T23:08:58.574Z,17.33
2022-08-14T23:11:16.390Z,17.31
2022-08-14T23:13:46.077Z,17.29
2022-08-14T23:16:19.570Z,17.32
2022-08-14T23:18:53.445Z,17.32
2022-08-14T23:21:24.324Z,17.36
2022-08-14T23:23:55.332Z,17.38
2022-08-14T23:26:48.026Z,17.35
2022-08-14T23:29:12.083Z,17.30
2022-08-14T23:31:39.617Z,17.30
2022-08-14T23:34:20.944Z,17.30
2022-08-14T23:36:53.690Z,17.29
2022-08-14T23:39:30.050Z,17.30
2022-08-14T23:42:04.591Z,17.29
2022-08-14T23:44:34.790Z,17.30
2022-08-14T23:47:12.166Z,17.31
2022-08-14T23:50:03.194Z,17.33
2022-08-14T23:52:51.508Z,17.36
2022-08-14T23:55:25.935Z,17.33
2022-08-14T23:57:57.990Z,17.36
